Time;durP1;ratioP1;P1;durP2;ratioP2;P2;SDS_P1;SDS_P2;PMS_P1;PMS_P2;Temp;Humidity;BMP_temperature;BMP_pressure;BME280_temperature;BME280_humidity;BME280_pressure;Samples;Min_cycle;Max_cycle;Signal;HPM_P1;HPM_P2
2024/01/22 00:00:09;;;;;;;;;;;;;;;15.62;39.22;102839.13;5081335;28;1007;-40
2024/01/22 00:02:38;;;;;;;;;;;;;;;17.13;36.09;102837.88;5094706;28;894;-38
2024/01/22 00:05:04;;;;;;;;;;;;;;;15.87;38.75;102837.38;5091144;28;1128;-42
2024/01/22 00:07:29;;;;;;;;;;;;;;;17.31;36.14;102839.84;5108573;28;1046;-43
2024/01/22 00:09:55;;;;;;;;;;;;;;;16.52;37.20;102844.72;5103242;28;1173;-45
2024/01/22 00:12:20;;;;;;;;;;;;;;;15.72;39.10;102846.75;5116118;28;1073;-38
2024/01/22 00:14:47;;;;;;;;;;;;;;;15.96;38.82;102849.44;5096526;28;1184;-40
2024/01/22 00:17:13;;;;;;;;;;;;;;;16.17;37.91;102842.50;5095708;28;1906;-43
2024/01/22 00:19:38;;;;;;;;;;;;;;;16.60;37.65;102855.91;5111425;28;1276;-38
2024/01/22 00:22:04;;;;;;;;;;;;;;;18.16;34.62;102853.91;5112761;28;1143;-45
2024/01/22 00:24:29;;;;;;;;;;;;;;;16.32;37.74;102853.47;5119168;28;1112;-42
2024/01/22 00:26:55;;;;;;;;;;;;;;;15.72;39.23;102854.72;5100533;28;825;-40
2024/01/22 00:29:20;;;;;;;;;;;;;;;16.72;36.77;102856.34;5118916;28;1049;-42
2024/01/22 00:31:46;;;;;;;;;;;;;;;15.86;38.58;102868.38;5119832;28;1033;-41
2024/01/22 00:34:11;;;;;;;;;;;;;;;17.86;35.14;102870.31;5119245;28;1168;-42
2024/01/22 00:36:37;;;;;;;;;;;;;;;16.55;37.33;102865.84;5119294;28;1971;-42
2024/01/22 00:39:02;;;;;;;;;;;;;;;15.76;38.81;102864.31;5118433;28;1193;-40
2024/01/22 00:41:28;;;;;;;;;;;;;;;15.79;39.29;102865.06;5106680;28;1077;-43
2024/01/22 00:43:53;;;;;;;;;;;;;;;16.12;38.20;102861.28;5118354;28;1089;-40
2024/01/22 00:46:19;;;;;;;;;;;;;;;16.10;38.17;102856.94;5106563;28;1077;-39
2024/01/22 00:48:44;;;;;;;;;;;;;;;17.89;34.81;102853.31;5118100;28;1164;-43
2024/01/22 00:51:10;;;;;;;;;;;;;;;16.19;37.63;102853.94;5099097;28;912;-41
2024/01/22 00:53:35;;;;;;;;;;;;;;;17.06;36.31;102854.13;5104807;28;1073;-43
2024/01/22 00:56:01;;;;;;;;;;;;;;;16.95;36.30;102860.75;5118555;28;1070;-44
2024/01/22 00:58:26;;;;;;;;;;;;;;;15.97;38.19;102856.47;5100317;28;1992;-42
2024/01/22 01:00:52;;;;;;;;;;;;;;;16.75;37.25;102862.41;5119072;28;1129;-43
2024/01/22 01:03:18;;;;;;;;;;;;;;;16.14;37.74;102856.78;5113220;28;891;-42
2024/01/22 01:05:43;;;;;;;;;;;;;;;15.59;38.95;102856.94;5108650;28;1089;-40
2024/01/22 01:08:09;;;;;;;;;;;;;;;15.90;38.98;102855.84;5098686;28;1061;-40
2024/01/22 01:10:34;;;;;;;;;;;;;;;17.12;35.90;102846.81;5109894;28;1133;-41
2024/01/22 01:13:00;;;;;;;;;;;;;;;15.83;38.48;102843.72;5100555;28;1228;-41
2024/01/22 01:15:25;;;;;;;;;;;;;;;17.26;36.04;102837.38;5105696;28;928;-43
2024/01/22 01:17:51;;;;;;;;;;;;;;;16.45;37.22;102844.09;5099773;28;1990;-43
2024/01/22 01:20:16;;;;;;;;;;;;;;;15.57;38.97;102829.59;5098021;28;1144;-42
2024/01/22 01:22:42;;;;;;;;;;;;;;;15.36;39.25;102829.44;5115896;28;1057;-43
2024/01/22 01:25:08;;;;;;;;;;;;;;;17.24;35.78;102826.81;5118657;28;1160;-41
2024/01/22 01:27:33;;;;;;;;;;;;;;;15.82;38.23;102828.72;5115415;28;952;-41
2024/01/22 01:29:59;;;;;;;;;;;;;;;15.82;38.65;102823.41;5106618;28;1101;-40
2024/01/22 01:32:26;;;;;;;;;;;;;;;16.34;37.36;102820.63;5116093;28;1105;-42
2024/01/22 01:34:51;;;;;;;;;;;;;;;15.63;38.94;102813.47;5106848;28;1173;-41
2024/01/22 01:37:17;;;;;;;;;;;;;;;17.72;35.14;102810.53;5115180;28;1910;-41
2024/01/22 01:39:42;;;;;;;;;;;;;;;16.18;37.70;102808.84;5108742;28;990;-43
2024/01/22 01:42:08;;;;;;;;;;;;;;;16.96;36.59;102809.31;5117588;28;1133;-39
2024/01/22 01:44:37;;;;;;;;;;;;;;;17.14;35.81;102798.88;5107178;28;1061;-46
2024/01/22 01:47:02;;;;;;;;;;;;;;;15.97;38.04;102803.38;5088841;28;1085;-45
2024/01/22 01:49:28;;;;;;;;;;;;;;;15.54;39.06;102796.97;5116294;28;1180;-42
2024/01/22 01:51:53;;;;;;;;;;;;;;;15.22;39.56;102793.63;5084252;28;1093;-45
2024/01/22 01:54:19;;;;;;;;;;;;;;;16.99;36.32;102793.25;5109308;28;1177;-38
2024/01/22 01:56:44;;;;;;;;;;;;;;;15.60;38.74;102789.72;5112808;28;1905;-41
2024/01/22 01:59:10;;;;;;;;;;;;;;;17.58;35.42;102792.53;5109393;28;1134;-41
2024/01/22 02:01:35;;;;;;;;;;;;;;;16.99;35.83;102792.38;5103723;28;1248;-43
2024/01/22 02:04:01;;;;;;;;;;;;;;;15.92;38.03;102792.94;5106487;28;1145;-39
2024/01/22 02:06:26;;;;;;;;;;;;;;;15.94;38.62;102795.53;5101205;28;1073;-39
2024/01/22 02:08:52;;;;;;;;;;;;;;;16.18;37.24;102788.50;5096713;28;1395;-39
2024/01/22 02:11:21;;;;;;;;;;;;;;;17.48;35.44;102794.72;5094636;28;1398;-41
2024/01/22 02:13:46;;;;;;;;;;;;;;;18.48;33.48;102797.38;5099353;28;1130;-42
2024/01/22 02:16:12;;;;;;;;;;;;;;;16.48;37.35;102797.97;5117342;28;1049;-39
2024/01/22 02:18:37;;;;;;;;;;;;;;;15.88;38.37;102788.69;5116864;28;1906;-42
2024/01/22 02:21:03;;;;;;;;;;;;;;;15.52;38.89;102792.63;5116973;28;1085;-37
2024/01/22 02:23:29;;;;;;;;;;;;;;;17.34;35.72;102789.16;5117299;28;1164;-41
2024/01/22 02:25:54;;;;;;;;;;;;;;;15.90;38.17;102787.69;5113661;28;1096;-40
2024/01/22 02:28:20;;;;;;;;;;;;;;;17.49;35.53;102785.84;5088869;28;2527;-42
2024/01/22 02:30:45;;;;;;;;;;;;;;;17.10;35.82;102786.66;5080625;28;2107;-43
2024/01/22 02:33:11;;;;;;;;;;;;;;;16.00;38.13;102793.56;5087912;28;2077;-38
2024/01/22 02:35:36;;;;;;;;;;;;;;;17.71;35.03;102798.19;5084937;28;1805;-39
2024/01/22 02:38:02;;;;;;;;;;;;;;;16.35;37.50;102792.28;5092957;28;2228;-41
2024/01/22 02:40:27;;;;;;;;;;;;;;;15.79;38.26;102792.53;5100538;28;2108;-41
2024/01/22 02:42:53;;;;;;;;;;;;;;;16.62;36.64;102794.75;5093825;28;2236;-39
2024/01/22 02:45:18;;;;;;;;;;;;;;;15.65;38.54;102796.56;5095363;28;1366;-41
2024/01/22 02:47:44;;;;;;;;;;;;;;;15.91;38.58;102793.88;5089023;28;1101;-40
2024/01/22 02:50:09;;;;;;;;;;;;;;;16.35;36.97;102801.09;5092663;28;1231;-40
2024/01/22 02:52:35;;;;;;;;;;;;;;;16.50;37.05;102799.63;5082524;28;1139;-40
2024/01/22 02:55:00;;;;;;;;;;;;;;;18.16;34.06;102794.41;5095612;28;1455;-42
2024/01/22 02:57:26;;;;;;;;;;;;;;;16.39;37.18;102794.75;5095363;28;1901;-44
2024/01/22 02:59:51;;;;;;;;;;;;;;;15.66;38.38;102794.78;5087423;28;1358;-46
2024/01/22 03:02:17;;;;;;;;;;;;;;;15.97;38.23;102800.72;5079644;28;1067;-41
2024/01/22 03:04:43;;;;;;;;;;;;;;;16.72;36.36;102804.06;5094421;28;1390;-42
2024/01/22 03:07:09;;;;;;;;;;;;;;;16.38;37.46;102800.97;5094511;28;1402;-43
2024/01/22 03:09:34;;;;;;;;;;;;;;;18.13;34.26;102795.44;5082479;28;1118;-42
2024/01/22 03:12:00;;;;;;;;;;;;;;;16.69;36.56;102793.56;5101028;28;2377;-39
2024/01/22 03:14:25;;;;;;;;;;;;;;;16.71;36.84;102791.72;5108958;28;1112;-39
2024/01/22 03:16:51;;;;;;;;;;;;;;;17.55;34.75;102787.34;5105803;28;1910;-41
2024/01/22 03:19:16;;;;;;;;;;;;;;;16.27;37.37;102782.81;5099864;28;1061;-43
2024/01/22 03:21:42;;;;;;;;;;;;;;;16.44;37.28;102777.75;5116039;28;1117;-40
2024/01/22 03:24:07;;;;;;;;;;;;;;;16.76;35.98;102783.56;5098903;28;1212;-45
2024/01/22 03:26:33;;;;;;;;;;;;;;;15.90;38.16;102770.91;5099487;28;1031;-40
2024/01/22 03:28:58;;;;;;;;;;;;;;;16.57;37.05;102773.66;5102337;28;1085;-43
2024/01/22 03:31:27;;;;;;;;;;;;;;;16.15;37.14;102760.25;5116390;28;1054;-42
2024/01/22 03:33:53;;;;;;;;;;;;;;;16.80;36.44;102753.25;5097960;28;1169;-42
2024/01/22 03:36:19;;;;;;;;;;;;;;;17.39;34.90;102747.25;5106397;28;1175;-43
2024/01/22 03:38:44;;;;;;;;;;;;;;;16.10;37.44;102746.28;5106329;28;1914;-43
2024/01/22 03:41:10;;;;;;;;;;;;;;;15.63;38.47;102741.84;5097166;28;1002;-43
2024/01/22 03:43:36;;;;;;;;;;;;;;;17.33;35.11;102748.38;5101716;28;1853;-44
2024/01/22 03:46:02;;;;;;;;;;;;;;;15.89;37.54;102748.81;5096657;28;1189;-41
2024/01/22 03:48:27;;;;;;;;;;;;;;;16.12;37.67;102748.88;5105014;28;1109;-44
2024/01/22 03:50:53;;;;;;;;;;;;;;;16.45;36.71;102750.28;5109922;28;1078;-42
2024/01/22 03:53:18;;;;;;;;;;;;;;;15.69;38.02;102756.66;5108504;28;1130;-40
2024/01/22 03:55:44;;;;;;;;;;;;;;;17.77;34.38;102762.41;5113545;28;1117;-42
2024/01/22 03:58:11;;;;;;;;;;;;;;;16.22;36.81;102765.31;5112360;28;1982;-43
2024/01/22 04:00:36;;;;;;;;;;;;;;;16.55;36.74;102762.22;5119441;28;1010;-40
2024/01/22 04:03:02;;;;;;;;;;;;;;;17.08;35.32;102759.22;5100185;28;1191;-41
2024/01/22 04:05:27;;;;;;;;;;;;;;;15.98;37.29;102765.31;5105243;28;1166;-43
2024/01/22 04:07:53;;;;;;;;;;;;;;;15.82;38.15;102776.50;5106398;28;1204;-43
2024/01/22 04:10:18;;;;;;;;;;;;;;;17.43;34.77;102777.25;5110579;28;1046;-45
2024/01/22 04:12:44;;;;;;;;;;;;;;;16.02;37.28;102790.84;5104691;28;1838;-41
2024/01/22 04:15:10;;;;;;;;;;;;;;;16.22;37.63;102789.22;5111385;28;1082;-41
2024/01/22 04:17:36;;;;;;;;;;;;;;;16.23;37.04;102785.66;5087973;28;1918;-41
2024/01/22 04:20:01;;;;;;;;;;;;;;;15.88;37.99;102778.91;5083984;28;1379;-41
2024/01/22 04:22:27;;;;;;;;;;;;;;;17.86;34.36;102778.00;5078998;28;1301;-39
2024/01/22 04:24:53;;;;;;;;;;;;;;;16.19;36.96;102773.41;5078643;28;1269;-43
2024/01/22 04:27:18;;;;;;;;;;;;;;;16.00;37.77;102774.09;5086749;28;1266;-40
2024/01/22 04:29:44;;;;;;;;;;;;;;;16.55;36.18;102778.19;5080772;28;1245;-40
2024/01/22 04:32:09;;;;;;;;;;;;;;;16.39;37.11;102778.81;5084643;28;1360;-40
2024/01/22 04:34:37;;;;;;;;;;;;;;;18.19;33.76;102781.81;5109087;28;1006;-42
2024/01/22 04:37:03;;;;;;;;;;;;;;;16.59;36.54;102774.50;5115542;28;1968;-42
2024/01/22 04:39:29;;;;;;;;;;;;;;;15.83;37.80;102775.56;5115736;28;1173;-41
2024/01/22 04:41:54;;;;;;;;;;;;;;;17.19;35.66;102778.25;5088942;28;1827;-40
2024/01/22 04:44:20;;;;;;;;;;;;;;;16.12;37.36;102781.63;5098506;28;1075;-40
2024/01/22 04:46:46;;;;;;;;;;;;;;;16.31;37.52;102793.31;5115477;28;1073;-38
2024/01/22 04:49:11;;;;;;;;;;;;;;;17.23;35.15;102786.97;5098381;28;1047;-42
2024/01/22 04:51:37;;;;;;;;;;;;;;;15.96;37.71;102791.94;5099955;28;1410;-44
2024/01/22 04:54:02;;;;;;;;;;;;;;;17.79;34.11;102787.19;5093863;28;950;-43
2024/01/22 04:56:28;;;;;;;;;;;;;;;16.62;35.90;102794.75;5111324;28;1021;-45
2024/01/22 04:58:53;;;;;;;;;;;;;;;15.94;37.53;102785.81;5087581;28;1897;-44
2024/01/22 05:01:19;;;;;;;;;;;;;;;17.00;35.74;102794.09;5098494;28;1122;-44
2024/01/22 05:03:44;;;;;;;;;;;;;;;16.39;36.26;102804.50;5101823;28;1085;-44
2024/01/22 05:06:10;;;;;;;;;;;;;;;16.76;36.25;102788.88;5099740;28;1050;-43
2024/01/22 05:08:35;;;;;;;;;;;;;;;17.77;34.01;102786.38;5105292;28;1030;-44
2024/01/22 05:11:01;;;;;;;;;;;;;;;16.23;36.53;102788.31;5117927;28;1100;-48
2024/01/22 05:13:26;;;;;;;;;;;;;;;15.69;38.17;102796.44;5097764;28;2552;-43
2024/01/22 05:15:52;;;;;;;;;;;;;;;16.83;36.31;102800.97;5103210;28;1221;-42
2024/01/22 05:18:18;;;;;;;;;;;;;;;15.91;37.35;102796.53;5104670;28;1902;-46
2024/01/22 05:20:43;;;;;;;;;;;;;;;17.21;35.23;102799.47;5118360;28;1185;-42
2024/01/22 05:23:08;;;;;;;;;;;;;;;16.75;35.80;102795.09;5113324;28;1332;-47
2024/01/22 05:25:34;;;;;;;;;;;;;;;16.36;36.61;102792.22;5101877;28;1243;-42
2024/01/22 05:28:00;;;;;;;;;;;;;;;16.06;37.06;102788.94;5103299;28;1054;-47
2024/01/22 05:30:25;;;;;;;;;;;;;;;15.88;37.43;102796.66;5096911;28;1180;-46
2024/01/22 05:32:51;;;;;;;;;;;;;;;15.68;37.67;102792.94;5097717;28;1135;-46
2024/01/22 05:35:16;;;;;;;;;;;;;;;15.45;38.26;102794.63;5115556;28;964;-46
2024/01/22 05:37:42;;;;;;;;;;;;;;;15.28;38.25;102785.47;5117865;28;1906;-45
2024/01/22 05:40:10;;;;;;;;;;;;;;;15.22;38.44;102788.34;5101092;28;1217;-45
2024/01/22 05:42:35;;;;;;;;;;;;;;;16.73;35.86;102794.31;5087648;28;2383;-49
2024/01/22 05:45:02;;;;;;;;;;;;;;;17.00;34.92;102797.63;5086479;28;1233;-45
2024/01/22 05:47:27;;;;;;;;;;;;;;;16.10;36.94;102803.84;5101580;28;1018;-47
2024/01/22 05:49:53;;;;;;;;;;;;;;;15.58;37.84;102795.03;5116080;28;1136;-45
2024/01/22 05:52:19;;;;;;;;;;;;;;;15.39;38.23;102798.38;5106425;28;926;-43
2024/01/22 05:54:45;;;;;;;;;;;;;;;15.79;37.57;102793.41;5104208;28;1039;-44
2024/01/22 05:57:11;;;;;;;;;;;;;;;17.13;34.80;102790.00;5108757;28;1905;-47
2024/01/22 05:59:37;;;;;;;;;;;;;;;16.56;35.68;102801.19;5099617;28;1070;-47
2024/01/22 06:02:03;;;;;;;;;;;;;;;15.85;37.27;102799.44;5117346;28;1078;-46
2024/01/22 06:04:28;;;;;;;;;;;;;;;15.50;38.00;102799.75;5109361;28;1487;-48
2024/01/22 06:06:54;;;;;;;;;;;;;;;15.29;38.10;102810.22;5096185;28;1090;-48
2024/01/22 06:09:19;;;;;;;;;;;;;;;16.23;36.39;102804.25;5096594;28;1009;-45
2024/01/22 06:11:45;;;;;;;;;;;;;;;17.20;34.58;102800.41;5093022;28;2277;-44
2024/01/22 06:14:10;;;;;;;;;;;;;;;16.21;36.17;102814.91;5101376;28;1269;-41
2024/01/22 06:16:36;;;;;;;;;;;;;;;15.62;37.62;102817.03;5105653;28;872;-46
2024/01/22 06:19:02;;;;;;;;;;;;;;;15.32;38.19;102823.34;5084277;28;2052;-41
2024/01/22 06:21:27;;;;;;;;;;;;;;;15.85;37.03;102813.53;5117219;28;1109;-43
2024/01/22 06:23:53;;;;;;;;;;;;;;;17.12;34.92;102806.03;5094155;28;1113;-43
2024/01/22 06:26:19;;;;;;;;;;;;;;;16.62;35.20;102818.66;5115889;28;1114;-38
2024/01/22 06:28:47;;;;;;;;;;;;;;;15.97;36.75;102816.66;5099596;28;1006;-45
2024/01/22 06:31:13;;;;;;;;;;;;;;;15.48;37.51;102810.41;5103893;28;1029;-44
2024/01/22 06:33:38;;;;;;;;;;;;;;;15.21;38.22;102801.66;5116593;28;1159;-48
2024/01/22 06:36:06;;;;;;;;;;;;;;;16.46;35.92;102807.78;5108827;28;1462;-44
2024/01/22 06:38:32;;;;;;;;;;;;;;;17.40;34.29;102809.31;5097270;28;1910;-45
2024/01/22 06:40:57;;;;;;;;;;;;;;;16.47;35.84;102817.47;5112721;28;855;-41
2024/01/22 06:43:23;;;;;;;;;;;;;;;15.83;36.89;102809.22;5090917;28;1804;-45
2024/01/22 06:45:48;;;;;;;;;;;;;;;15.47;37.73;102808.69;5105477;28;1122;-44
2024/01/22 06:48:14;;;;;;;;;;;;;;;15.40;38.05;102805.41;5095507;28;1180;-44
2024/01/22 06:50:40;;;;;;;;;;;;;;;17.84;33.62;102803.81;5092000;28;1074;-43
2024/01/22 06:53:05;;;;;;;;;;;;;;;17.87;33.22;102802.78;5110091;28;1110;-41
2024/01/22 06:55:31;;;;;;;;;;;;;;;18.27;32.52;102818.75;5085320;28;1040;-43
2024/01/22 06:57:56;;;;;;;;;;;;;;;18.72;32.02;102824.59;5081305;28;1914;-38
2024/01/22 07:00:22;;;;;;;;;;;;;;;17.43;33.88;102828.69;5080613;28;1297;-39
2024/01/22 07:02:49;;;;;;;;;;;;;;;16.64;35.39;102838.06;5094780;28;912;-45
2024/01/22 07:05:14;;;;;;;;;;;;;;;16.16;36.04;102833.66;5111442;28;1109;-43
2024/01/22 07:07:40;;;;;;;;;;;;;;;15.88;36.86;102836.47;5096233;28;1106;-42
2024/01/22 07:10:07;;;;;;;;;;;;;;;15.55;37.64;102849.09;5103964;28;1099;-44
2024/01/22 07:12:33;;;;;;;;;;;;;;;16.85;35.11;102854.09;5097049;28;2337;-39
2024/01/22 07:15:00;;;;;;;;;;;;;;;17.70;33.54;102846.16;5103470;28;1007;-40
2024/01/22 07:17:26;;;;;;;;;;;;;;;16.59;35.34;102851.53;5096968;28;1984;-39
2024/01/22 07:19:51;;;;;;;;;;;;;;;16.00;36.36;102853.75;5099911;28;1174;-46
2024/01/22 07:22:17;;;;;;;;;;;;;;;15.66;37.17;102843.38;5096487;28;1149;-39
2024/01/22 07:24:43;;;;;;;;;;;;;;;15.69;37.00;102857.47;5089901;28;1230;-40
2024/01/22 07:27:08;;;;;;;;;;;;;;;17.07;34.71;102850.53;5095818;28;1125;-38
2024/01/22 07:29:36;;;;;;;;;;;;;;;16.83;35.03;102853.28;5110950;28;903;-40
2024/01/22 07:32:02;;;;;;;;;;;;;;;16.03;36.52;102837.72;5109904;28;1093;-43
2024/01/22 07:34:27;;;;;;;;;;;;;;;15.71;36.71;102847.69;5117440;28;1253;-37
2024/01/22 07:36:53;;;;;;;;;;;;;;;15.67;37.28;102841.63;5107360;28;1910;-38
2024/01/22 07:39:18;;;;;;;;;;;;;;;17.17;34.60;102835.09;5098164;28;1174;-37
2024/01/22 07:41:44;;;;;;;;;;;;;;;16.99;34.72;102842.88;5103899;28;2336;-37
2024/01/22 07:44:09;;;;;;;;;;;;;;;16.11;36.14;102832.13;5089864;28;1238;-40
2024/01/22 07:46:35;;;;;;;;;;;;;;;15.68;37.00;102840.72;5092607;28;1039;-37
2024/01/22 07:49:00;;;;;;;;;;;;;;;15.39;37.83;102848.75;5118213;28;1062;-42
2024/01/22 07:51:26;;;;;;;;;;;;;;;16.70;35.43;102842.28;5114601;28;1050;-43
2024/01/22 07:53:52;;;;;;;;;;;;;;;17.50;33.86;102847.88;5113605;28;902;-41
2024/01/22 07:56:17;;;;;;;;;;;;;;;16.39;35.81;102841.69;5106492;28;1096;-40
2024/01/22 07:58:43;;;;;;;;;;;;;;;15.81;36.44;102840.25;5089234;28;1905;-37
2024/01/22 08:01:09;;;;;;;;;;;;;;;15.51;37.25;102846.59;5110589;28;1023;-38
2024/01/22 08:03:34;;;;;;;;;;;;;;;15.67;37.27;102853.09;5119363;28;1037;-43
2024/01/22 08:06:00;;;;;;;;;;;;;;;17.07;34.76;102846.09;5105384;28;1041;-40
2024/01/22 08:08:26;;;;;;;;;;;;;;;17.30;34.08;102856.75;5097761;28;1265;-42
2024/01/22 08:10:52;;;;;;;;;;;;;;;16.33;35.94;102865.84;5112636;28;1146;-42
2024/01/22 08:13:17;;;;;;;;;;;;;;;15.81;37.08;102850.88;5099373;28;2574;-42
2024/01/22 08:15:43;;;;;;;;;;;;;;;15.50;37.29;102869.59;5118681;28;1026;-40
2024/01/22 08:18:09;;;;;;;;;;;;;;;16.67;35.43;102871.63;5107165;28;1906;-41
2024/01/22 08:20:34;;;;;;;;;;;;;;;17.38;34.03;102859.94;5112606;28;1112;-42
2024/01/22 08:23:00;;;;;;;;;;;;;;;16.33;36.17;102864.03;5105068;28;1153;-41
2024/01/22 08:25:28;;;;;;;;;;;;;;;15.83;37.04;102868.47;5107284;28;1057;-43
2024/01/22 08:27:54;;;;;;;;;;;;;;;15.97;36.84;102859.13;5111054;28;1021;-40
2024/01/22 08:30:20;;;;;;;;;;;;;;;17.32;34.32;102862.84;5113357;28;914;-39
2024/01/22 08:32:45;;;;;;;;;;;;;;;16.97;34.89;102861.56;5090834;28;1457;-39
2024/01/22 08:35:11;;;;;;;;;;;;;;;16.15;36.36;102861.16;5107127;28;1063;-44
2024/01/22 08:37:39;;;;;;;;;;;;;;;15.75;37.23;102860.78;5090674;28;1971;-42
2024/01/22 08:40:08;;;;;;;;;;;;;;;15.49;37.58;102856.38;5094166;28;1150;-41
2024/01/22 08:42:33;;;;;;;;;;;;;;;16.97;35.06;102864.22;5104519;28;1839;-41
2024/01/22 08:44:59;;;;;;;;;;;;;;;17.57;33.70;102853.81;5091011;28;1079;-43
2024/01/22 08:47:25;;;;;;;;;;;;;;;16.45;35.88;102857.38;5118696;28;1113;-45
2024/01/22 08:49:50;;;;;;;;;;;;;;;15.94;36.70;102859.25;5103806;28;1236;-43
2024/01/22 08:52:16;;;;;;;;;;;;;;;15.58;37.33;102860.53;5092623;28;1285;-41
2024/01/22 08:54:41;;;;;;;;;;;;;;;16.29;36.27;102851.81;5092262;28;848;-47
2024/01/22 08:57:08;;;;;;;;;;;;;;;17.45;34.31;102849.91;5100215;28;1906;-45
2024/01/22 08:59:34;;;;;;;;;;;;;;;16.82;35.14;102852.41;5106911;28;1285;-41
2024/01/22 09:01:59;;;;;;;;;;;;;;;16.03;36.70;102854.50;5107640;28;924;-44
2024/01/22 09:04:25;;;;;;;;;;;;;;;17.19;34.45;102846.53;5111481;28;1073;-45
2024/01/22 09:06:51;;;;;;;;;;;;;;;15.61;37.36;102841.84;5103287;28;861;-42
2024/01/22 09:09:17;;;;;;;;;;;;;;;16.10;36.79;102841.03;5117964;28;1065;-43
2024/01/22 09:11:42;;;;;;;;;;;;;;;17.35;34.25;102833.47;5107099;28;1269;-44
2024/01/22 09:14:08;;;;;;;;;;;;;;;16.95;35.08;102838.63;5101152;28;2827;-41
2024/01/22 09:16:33;;;;;;;;;;;;;;;16.15;36.84;102831.06;5102637;28;1082;-42
2024/01/22 09:18:59;;;;;;;;;;;;;;;15.72;37.30;102814.91;5089032;28;2258;-40
2024/01/22 09:21:25;;;;;;;;;;;;;;;15.39;38.28;102814.28;5097408;28;1059;-43
2024/01/22 09:23:50;;;;;;;;;;;;;;;16.52;36.25;102818.16;5078764;28;1206;-44
2024/01/22 09:26:16;;;;;;;;;;;;;;;17.53;34.31;102815.84;5095336;28;1071;-46
2024/01/22 09:28:41;;;;;;;;;;;;;;;16.55;36.00;102819.84;5113644;28;1030;-41
2024/01/22 09:31:07;;;;;;;;;;;;;;;15.93;37.01;102817.72;5099136;28;917;-41
2024/01/22 09:33:33;;;;;;;;;;;;;;;15.51;37.63;102804.16;5108364;28;1051;-45
2024/01/22 09:36:01;;;;;;;;;;;;;;;15.94;37.32;102804.38;5103005;28;1065;-44
2024/01/22 09:38:27;;;;;;;;;;;;;;;17.26;34.75;102797.47;5084999;28;1914;-43
2024/01/22 09:40:52;;;;;;;;;;;;;;;16.95;34.67;102801.41;5093869;28;1155;-42
2024/01/22 09:43:18;;;;;;;;;;;;;;;16.13;36.36;102795.75;5090088;28;1784;-42
2024/01/22 09:45:46;;;;;;;;;;;;;;;15.74;37.56;102805.09;5089470;28;1130;-44
2024/01/22 09:48:11;;;;;;;;;;;;;;;15.45;37.85;102799.91;5072026;28;1459;-46
2024/01/22 09:50:37;;;;;;;;;;;;;;;15.91;37.35;102797.38;5089758;28;1319;-43
2024/01/22 09:53:09;;;;;;;;;;;;;;;17.19;35.18;102790.69;5097045;28;1524;-41
2024/01/22 09:55:36;;;;;;;;;;;;;;;17.30;34.57;102791.06;5079894;28;1351;-43
2024/01/22 09:58:03;;;;;;;;;;;;;;;16.25;36.22;102789.09;5086099;28;1972;-43
2024/01/22 10:00:29;;;;;;;;;;;;;;;15.80;37.36;102788.97;5088001;28;1128;-44
2024/01/22 10:02:55;;;;;;;;;;;;;;;15.46;37.77;102780.44;5080966;28;1296;-44
2024/01/22 10:05:20;;;;;;;;;;;;;;;16.39;36.14;102786.78;5075140;28;1368;-41
2024/01/22 10:07:47;;;;;;;;;;;;;;;17.47;34.01;102766.41;5088865;28;1061;-40
2024/01/22 10:10:13;;;;;;;;;;;;;;;16.54;35.71;102773.81;5086680;28;1020;-42
2024/01/22 10:12:57;;;;;;;;;;;;;;;15.94;36.95;102774.31;5100607;28;1843;-44
2024/01/22 10:15:23;;;;;;;;;;;;;;;15.55;37.78;102769.50;5117477;28;1077;-47
2024/01/22 10:17:49;;;;;;;;;;;;;;;15.85;37.53;102768.44;5115465;28;1972;-42
2024/01/22 10:20:16;;;;;;;;;;;;;;;17.20;34.79;102764.00;5098836;28;1003;-42
2024/01/22 10:22:41;;;;;;;;;;;;;;;17.06;34.76;102759.28;5085388;28;1137;-43
2024/01/22 10:25:07;;;;;;;;;;;;;;;16.20;36.66;102765.38;5107716;28;1081;-47
2024/01/22 10:27:33;;;;;;;;;;;;;;;15.71;37.46;102765.44;5098893;28;1086;-44
2024/01/22 10:30:11;;;;;;;;;;;;;;;15.47;37.92;102762.72;5109469;28;1234;-44
2024/01/22 10:32:36;;;;;;;;;;;;;;;16.51;35.88;102760.66;5097182;28;1208;-42
2024/01/22 10:35:02;;;;;;;;;;;;;;;17.50;34.25;102758.28;5087237;28;1124;-44
2024/01/22 10:37:27;;;;;;;;;;;;;;;16.59;35.47;102763.84;5111210;28;1905;-43
2024/01/22 10:40:01;;;;;;;;;;;;;;;15.91;36.81;102756.72;5116833;28;1043;-42
2024/01/22 10:42:27;;;;;;;;;;;;;;;15.55;37.78;102750.06;5100393;28;2453;-43
2024/01/22 10:44:52;;;;;;;;;;;;;;;15.30;38.13;102750.94;5113739;28;1030;-40
2024/01/22 10:47:18;;;;;;;;;;;;;;;16.63;36.04;102749.50;5108763;28;1148;-42
2024/01/22 10:49:44;;;;;;;;;;;;;;;17.48;34.18;102744.16;5088082;28;1542;-43
2024/01/22 10:52:09;;;;;;;;;;;;;;;16.43;35.88;102742.38;5104911;28;1093;-45
2024/01/22 10:54:35;;;;;;;;;;;;;;;15.80;37.01;102735.88;5074116;28;1615;-45
2024/01/22 10:57:04;;;;;;;;;;;;;;;15.44;37.84;102739.84;5093553;28;1902;-44
2024/01/22 10:59:39;;;;;;;;;;;;;;;15.73;37.72;102731.75;5097858;28;1013;-49
2024/01/22 11:02:05;;;;;;;;;;;;;;;17.14;35.13;102721.75;5091131;28;1339;-43
2024/01/22 11:04:43;;;;;;;;;;;;;;;17.22;34.56;102724.94;5105188;28;1079;-44
2024/01/22 11:07:09;;;;;;;;;;;;;;;16.21;36.30;102714.00;5089134;28;939;-44
2024/01/22 11:09:36;;;;;;;;;;;;;;;15.76;37.45;102724.53;5106318;28;1189;-43
2024/01/22 11:12:09;;;;;;;;;;;;;;;15.52;37.75;102724.53;5074180;28;2433;-45
2024/01/22 11:14:35;;;;;;;;;;;;;;;16.41;36.51;102722.97;5103770;28;1109;-47
2024/01/22 11:17:02;;;;;;;;;;;;;;;17.47;34.36;102715.84;5097527;28;1902;-44
2024/01/22 11:19:28;;;;;;;;;;;;;;;16.63;35.52;102712.28;5114920;28;1026;-42
2024/01/22 11:21:54;;;;;;;;;;;;;;;16.01;36.81;102709.47;5112388;28;1065;-43
2024/01/22 11:24:19;;;;;;;;;;;;;;;15.62;37.79;102703.81;5077191;28;1447;-47
2024/01/22 11:26:45;;;;;;;;;;;;;;;15.36;38.07;102707.44;5110128;28;1109;-44
2024/01/22 11:29:14;;;;;;;;;;;;;;;16.77;35.71;102703.75;5087277;28;1114;-42
2024/01/22 11:31:40;;;;;;;;;;;;;;;17.35;34.50;102695.97;5113377;28;1077;-47
2024/01/22 11:34:05;;;;;;;;;;;;;;;16.33;36.49;102704.66;5104972;28;1217;-46
2024/01/22 11:36:49;;;;;;;;;;;;;;;15.78;37.62;102703.25;5108745;28;1181;-47
2024/01/22 11:39:38;;;;;;;;;;;;;;;15.46;37.97;102703.53;5115774;28;1898;-44
2024/01/22 11:42:07;;;;;;;;;;;;;;;15.93;37.47;102704.44;5090129;28;1867;-47
2024/01/22 11:44:52;;;;;;;;;;;;;;;17.19;34.96;102700.25;5106031;28;1086;-42
2024/01/22 11:47:18;;;;;;;;;;;;;;;16.77;35.39;102700.22;5105172;28;1815;-43
2024/01/22 11:49:44;;;;;;;;;;;;;;;16.02;36.94;102701.47;5109361;28;1123;-40
2024/01/22 11:52:09;;;;;;;;;;;;;;;15.55;37.90;102697.88;5108871;28;1026;-44
2024/01/22 11:54:35;;;;;;;;;;;;;;;15.41;38.09;102694.88;5095789;28;1510;-46
2024/01/22 11:57:01;;;;;;;;;;;;;;;16.88;35.54;102691.81;5098107;28;1921;-44
2024/01/22 11:59:26;;;;;;;;;;;;;;;17.48;34.14;102690.94;5077374;28;1077;-43
2024/01/22 12:01:52;;;;;;;;;;;;;;;16.39;36.48;102690.28;5106770;28;1174;-48
2024/01/22 12:04:17;;;;;;;;;;;;;;;15.83;37.45;102689.81;5079452;28;1407;-46
2024/01/22 12:06:49;;;;;;;;;;;;;;;15.52;38.13;102694.47;5100004;28;1062;-42
2024/01/22 12:09:15;;;;;;;;;;;;;;;16.02;37.35;102679.34;5095810;28;995;-47
2024/01/22 12:11:49;;;;;;;;;;;;;;;17.27;34.83;102682.16;5111101;28;911;-46
2024/01/22 12:14:14;;;;;;;;;;;;;;;16.61;35.75;102676.97;5105211;28;1035;-45
2024/01/22 12:16:40;;;;;;;;;;;;;;;15.99;36.99;102668.84;5086451;28;1314;-43
2024/01/22 12:19:11;;;;;;;;;;;;;;;15.59;38.08;102669.44;5086230;28;1978;-44
2024/01/22 12:21:37;;;;;;;;;;;;;;;15.32;38.47;102669.56;5099395;28;1061;-45
2024/01/22 12:24:14;;;;;;;;;;;;;;;16.73;35.84;102664.94;5105693;28;1489;-41
2024/01/22 12:26:40;;;;;;;;;;;;;;;17.31;34.46;102659.81;5103454;28;1385;-43
2024/01/22 12:29:22;;;;;;;;;;;;;;;16.24;36.43;102667.88;5107035;28;920;-41
2024/01/22 12:31:47;;;;;;;;;;;;;;;15.70;37.60;102671.69;5097186;28;985;-45
2024/01/22 12:34:13;;;;;;;;;;;;;;;15.53;37.86;102678.50;5112479;28;1146;-44
2024/01/22 12:36:38;;;;;;;;;;;;;;;16.17;36.93;102664.59;5094605;28;1274;-43
2024/01/22 12:39:05;;;;;;;;;;;;;;;17.32;34.78;102658.00;5105840;28;1979;-48
2024/01/22 12:41:31;;;;;;;;;;;;;;;16.63;35.99;102659.16;5097206;28;1302;-47